Expressjet E145 at Newark on Jan 20th 2013, blew tyres on landing and veered off runway

Last Update: January 21, 2013 / 10:28:10 GMT/Zulu time

Bookmark this article
Incident Facts

Date of incident
Jan 20, 2013

Classification
Incident

Airline
Expressjet

Flight number
EV-4480

Aircraft Registration
N12142

Aircraft Type
Embraer ERJ-145

ICAO Type Designator
E145

An Expressjet Embraer ERJ-145 on behalf of United, registration N12142 performing flight EV-4480/UA-4480 from Rochester,NY to Newark,NJ (USA) with 8 passengers and 5 crew, landed on Newark's runway 29 at 20:21L (01:21Z Jan 21st), when all 4 main gear tyres blew causing the aircraft veer off the runway to the right and come to a stop on taxiway Q/Z4 about 2400 feet/730 meters down the runway. The crew initially believed they could taxi off turning left onto taxiway Z but then reported their aircraft was disabled. Two aircraft on final approach to runway 29 were instructed to go-around, a third was offered circle to land on runway 22L and accepted. The passengers disembarked onto the taxiway and were bussed to the terminal.

The airline confirmed all four main gear tyres were blown shortly after landing, the crew brought the aircraft safely to a stop, there were no injuries.



Metars:
KEWR 210351Z 31014KT 10SM SCT270 00/M12 A3003 RMK AO2 SLP169 T00001117 $
KEWR 210251Z 31011KT 10SM SCT270 01/M11 A3000 RMK AO2 SLP159 T00111111 51032 $
KEWR 210151Z 31015G23KT 10SM FEW270 03/M10 A2998 RMK AO2 SLP153 T00281100 $
KEWR 210051Z 30013G20KT 10SM CLR 04/M11 A2995 RMK AO2 SLP140 T00391111 $
KEWR 202351Z 29019G26KT 10SM FEW250 06/M11 A2991 RMK AO2 PK WND 27027/2314 SLP127 T00561106 10133 20056 51045 $
KEWR 202251Z 28017G30KT 10SM FEW060 SCT250 07/M12 A2987 RMK AO2 PK WND 28031/2211 SLP115 T00671122 $
Incident Facts

Date of incident
Jan 20, 2013

Classification
Incident

Airline
Expressjet

Flight number
EV-4480

Aircraft Registration
N12142

Aircraft Type
Embraer ERJ-145

ICAO Type Designator
E145

This article is published under license from Avherald.com. © of text by Avherald.com.
Article source

You can read 2 more free articles without a subscription.

Subscribe now and continue reading without any limits!

Are you a subscriber? Login
Subscribe

Read unlimited articles and receive our daily update briefing. Gain better insights into what is happening in commercial aviation safety.

Send tip

Support AeroInside by sending a small tip amount.

Related articles

Newest articles

Subscribe today

Are you researching aviation incidents? Get access to AeroInside Insights, unlimited read access and receive the daily newsletter.

Pick your plan and subscribe

Partner

Blockaviation logo

A new way to document and demonstrate airworthiness compliance and aircraft value. Find out more.

Virtual Speech logo

ELITE Simulation Solutions is a leading global provider of Flight Simulation Training Devices, IFR training software as well as flight controls and related services. Find out more.

AeroInside Blog
Popular aircraft
Airbus A320
Boeing 737-800
Boeing 737-800 MAX
Popular airlines
American Airlines
United
Delta
Air Canada
Lufthansa
British Airways